Latest Weather Observations for Gooseberry Hill

IDW60901

Issued at 4:41 am WST Tuesday 4 August 2020 (issued every 10 minutes, with the page automatically refreshed every 10 minutes)

About weather observations | Map of Perth area stations | Latest observations for Perth area | Other Formats
Station Details ID: 009204 Name: GOOSEBERRY HILL Lat: -31.94 Lon: 116.05 Height: 220.0 m
Data from the previous 72 hours. | See also: Recent months at Gooseberry Hill
Date/Time
WST
Temp
°C
App
Temp
°C
Dew
Point
°C
Rel
Hum
%
Delta-T
°C
Wind Press
QNH
hPa
Press
MSL
hPa
Rain since
9am
mm
Dir  Spd
km/h
Gust
km/h
Spd
kts
Gust
kts
04/04:30am 6.7 1.8 6.7 100 0.0 SSE 22 33 12 18 - - -
04/04:00am 6.8 2.8 6.8 100 0.0 SSE 17 26 9 14 - - -
04/03:30am 6.8 3.2 6.8 100 0.0 S 15 22 8 12 - - -
04/03:00am 6.8 4.9 6.8 100 0.0 SSW 6 6 3 3 - - -
04/02:30am 7.1 5.1 7.1 100 0.0 SSE 7 17 4 9 - - -
04/02:00am 7.5 5.2 7.5 100 0.0 SSE 9 17 5 9 - - -
04/01:30am 7.8 5.2 7.8 100 0.0 SSE 11 22 6 12 - - -
04/01:00am 7.6 5.7 7.6 100 0.0 SSW 7 13 4 7 - - -
04/12:30am 7.6 5.9 7.6 100 0.0 S 6 11 3 6 - - -
04/12:00am 7.6 5.7 7.6 100 0.0 SE 7 15 4 8 - - -
 
Date/Time
WST
Temp
°C
App
Temp
°C
Dew
Point
°C
Rel
Hum
%
Delta-T
°C
Wind Press
QNH
hPa
Press
MSL
hPa
Rain since
9am
mm
Dir  Spd
km/h
Gust
km/h
Spd
kts
Gust
kts
03/11:30pm 7.9 4.9 7.9 100 0.0 E 13 19 7 10 - - -
03/11:00pm 8.1 5.2 8.1 100 0.0 ESE 13 20 7 11 - - -
03/10:30pm 8.1 5.6 8.1 100 0.0 SE 11 19 6 10 - - -
03/10:00pm 8.2 5.7 8.2 100 0.0 ESE 11 17 6 9 - - -
03/09:30pm 8.4 4.8 8.4 100 0.0 ESE 17 22 9 12 - - -
03/09:00pm 8.7 5.9 8.7 100 0.0 SE 13 19 7 10 - - -
03/08:30pm 8.7 5.9 8.7 100 0.0 ESE 13 19 7 10 - - -
03/08:00pm 8.9 5.8 8.9 100 0.0 E 15 20 8 11 - - -
03/07:30pm 9.0 5.6 9.0 100 0.0 ENE 17 22 9 12 - - -
03/07:00pm 8.9 5.4 8.9 100 0.0 ENE 17 24 9 13 - - -
03/06:30pm 8.8 4.9 8.8 100 0.0 ENE 19 28 10 15 - - -
03/06:00pm 8.8 3.2 8.8 100 0.0 ENE 28 41 15 22 - - -
03/05:30pm 8.7 4.2 8.7 100 0.0 NE 22 35 12 19 - - -
03/05:00pm 8.7 4.8 8.7 100 0.0 NE 19 22 10 12 - - -
03/04:30pm 8.8 4.7 8.7 99 0.0 NE 20 28 11 15 - - -
03/04:00pm 9.3 5.2 8.7 96 0.3 NE 20 28 11 15 - - -
03/03:30pm 9.6 6.6 9.1 97 0.2 NNE 15 20 8 11 - - -
03/03:00pm 9.8 7.4 8.6 92 0.6 NNE 11 19 6 10 - - -
03/02:30pm 10.1 7.9 9.5 96 0.3 NE 11 15 6 8 - - -
03/02:00pm 10.4 9.5 9.2 92 0.6 NNW 4 9 2 5 - - -
03/01:30pm 10.4 8.3 8.3 87 1.0 NNW 9 15 5 8 - - -
03/01:00pm 11.9 10.0 9.1 83 1.4 N 9 17 5 9 - - -
03/12:30pm 10.2 7.9 7.4 83 1.4 N 9 13 5 7 - - -
03/12:00pm 9.6 7.5 8.4 92 0.6 ENE 9 11 5 6 - - -
03/11:30am 8.7 6.9 8.1 96 0.3 NNE 7 13 4 7 - - -
03/11:00am 8.2 6.8 7.1 93 0.5 SW 4 7 2 4 - - -
03/10:30am 8.1 4.7 7.5 96 0.3 SSW 15 24 8 13 - - -
03/10:00am 9.2 7.7 8.4 95 0.4 SW 6 7 3 4 - - -
03/09:30am 9.7 8.0 7.5 86 1.1 NE 6 9 3 5 - - -
03/09:00am 9.0 6.8 7.9 93 0.5 NNE 9 13 5 7 - - -
03/08:30am 8.7 6.8 7.6 93 0.5 NE 7 11 4 6 - - -
03/08:00am 8.0 5.7 7.4 96 0.3 NE 9 11 5 6 - - -
03/07:30am 7.1 4.6 6.7 97 0.2 NNE 9 13 5 7 - - -
03/07:00am 7.1 4.2 6.5 96 0.3 NE 11 20 6 11 - - -
03/06:30am 7.0 4.4 6.1 94 0.4 NE 9 15 5 8 - - -
03/06:00am 7.0 4.0 6.1 94 0.4 NE 11 19 6 10 - - -
03/05:30am 7.3 4.7 6.1 92 0.5 NE 9 13 5 7 - - -
03/05:00am 7.6 5.4 6.2 91 0.6 NNE 7 11 4 6 - - -
03/04:30am 7.1 5.7 5.7 91 0.6 NNE 2 9 1 5 - - -
03/04:00am 7.1 4.5 5.9 92 0.5 E 9 9 5 5 - - -
03/03:30am 7.2 5.1 5.8 91 0.6 ESE 6 9 3 5 - - -
03/03:00am 7.2 5.0 6.1 93 0.5 E 7 9 4 5 - - -
03/02:30am 7.3 4.3 6.2 93 0.5 ESE 11 15 6 8 - - -
03/02:00am 7.5 4.9 6.3 92 0.6 ESE 9 13 5 7 - - -
03/01:30am 8.0 5.0 6.0 87 0.9 SSE 11 17 6 9 - - -
03/01:00am 7.9 3.2 6.0 88 0.9 S 20 28 11 15 - - -
03/12:30am 7.7 2.3 6.3 91 0.6 SSW 24 39 13 21 - - -
03/12:00am 7.7 2.1 7.3 97 0.2 SSW 26 41 14 22 - - -
 
Date/Time
WST
Temp
°C
App
Temp
°C
Dew
Point
°C
Rel
Hum
%
Delta-T
°C
Wind Press
QNH
hPa
Press
MSL
hPa
Rain since
9am
mm
Dir  Spd
km/h
Gust
km/h
Spd
kts
Gust
kts
02/11:30pm 8.5 3.2 8.5 100 0.0 SSW 26 46 14 25 - - -
02/11:00pm 8.6 3.3 8.6 100 0.0 SSW 26 43 14 23 - - -
02/10:30pm 9.0 3.1 9.0 100 0.0 SSW 30 50 16 27 - - -
02/10:20pm 9.4 4.0 9.4 100 0.0 SSW 28 50 15 27 - - -
02/10:18pm 9.6 4.2 9.6 100 0.0 SSW 28 46 15 25 - - -
02/10:00pm 10.8 8.6 10.8 100 0.0 SW 13 22 7 12 - - -
02/09:30pm 10.8 9.8 10.3 97 0.3 S 6 11 3 6 - - -
02/09:00pm 11.3 8.1 9.9 91 0.7 SSW 17 28 9 15 - - -
02/08:30pm 11.9 10.8 9.8 87 1.1 NW 6 7 3 4 - - -
02/08:00pm 12.2 10.5 9.8 85 1.2 NW 9 17 5 9 - - -
02/07:30pm 12.1 10.4 9.7 85 1.2 N 9 15 5 8 - - -
02/07:00pm 12.4 10.6 9.6 83 1.4 NNW 9 11 5 6 - - -
02/06:30pm 12.8 11.0 9.6 81 1.6 WNW 9 15 5 8 - - -
02/06:00pm 13.6 11.8 9.3 75 2.2 W 9 15 5 8 - - -
02/05:30pm 13.8 11.1 8.8 72 2.6 W 13 19 7 10 - - -
02/05:00pm 14.4 11.7 8.8 69 2.9 WSW 13 19 7 10 - - -
02/04:30pm 14.7 12.4 8.9 68 3.0 WSW 11 15 6 8 - - -
02/04:00pm 15.0 11.4 8.5 65 3.3 WSW 17 26 9 14 - - -
02/03:30pm 16.7 13.2 8.7 59 4.2 WSW 17 28 9 15 - - -
02/03:00pm 16.9 13.5 7.5 54 4.8 WSW 15 24 8 13 - - -
02/02:30pm 17.4 15.5 7.7 53 5.0 W 7 11 4 6 - - -
02/02:00pm 16.6 14.3 7.3 54 4.7 SW 9 17 5 9 - - -
02/01:30pm 17.2 15.5 7.5 53 4.9 W 6 9 3 5 - - -
02/01:00pm 15.8 13.7 6.8 55 4.5 WSW 7 13 4 7 - - -
02/12:30pm 15.8 13.7 6.8 55 4.5 W 7 13 4 7 - - -
02/12:00pm 15.5 14.4 8.5 63 3.6 SW 4 7 2 4 - - -
02/11:30am 14.7 14.5 8.9 68 3.0 CALM 0 0 0 0 - - -
02/11:00am 14.3 13.7 8.9 70 2.8 SSE 2 4 1 2 - - -
02/10:30am 14.2 12.4 7.9 66 3.2 E 7 11 4 6 - - -
02/10:00am 12.3 9.7 7.6 73 2.3 ESE 11 20 6 11 - - -
02/09:30am 12.0 11.2 8.1 77 1.9 E 2 6 1 3 - - -
02/09:00am 12.7 11.1 8.2 74 2.3 ESE 6 13 3 7 - - -
02/08:30am 12.0 9.6 6.9 71 2.5 SE 9 17 5 9 - - -
02/08:00am 11.0 7.0 6.6 74 2.1 ESE 17 24 9 13 - - -
02/07:30am 12.2 8.2 6.7 69 2.7 ESE 17 24 9 13 - - -
02/07:00am 11.0 8.5 6.6 74 2.1 SE 9 15 5 8 - - -
02/06:30am 10.8 6.4 6.4 74 2.1 ESE 19 28 10 15 - - -
02/06:00am 11.2 6.7 6.3 72 2.3 ESE 19 24 10 13 - - -
02/05:30am 11.4 7.7 6.5 72 2.3 ESE 15 20 8 11 - - -
02/05:00am 11.6 7.9 6.5 71 2.4 ESE 15 20 8 11 - - -
02/04:30am 11.5 8.2 6.4 71 2.4 ESE 13 19 7 10 - - -
02/04:00am 11.7 8.8 6.4 70 2.5 ESE 11 17 6 9 - - -
02/03:30am 11.7 8.8 6.4 70 2.5 SE 11 15 6 8 - - -
02/03:00am 12.1 9.6 6.4 68 2.7 SE 9 13 5 7 - - -
02/02:30am 12.1 9.6 6.6 69 2.6 ESE 9 13 5 7 - - -
02/02:00am 11.7 8.8 6.6 71 2.4 ESE 11 15 6 8 - - -
02/01:30am 11.8 8.6 6.7 71 2.5 ESE 13 19 7 10 - - -
02/01:00am 12.0 8.8 6.7 70 2.6 ESE 13 19 7 10 - - -
02/12:30am 12.4 9.6 6.9 69 2.7 ESE 11 17 6 9 - - -
02/12:00am 12.3 9.9 7.0 70 2.6 ESE 9 15 5 8 - - -
 
Date/Time
WST
Temp
°C
App
Temp
°C
Dew
Point
°C
Rel
Hum
%
Delta-T
°C
Wind Press
QNH
hPa
Press
MSL
hPa
Rain since
9am
mm
Dir  Spd
km/h
Gust
km/h
Spd
kts
Gust
kts
01/11:30pm 12.3 9.5 7.0 70 2.6 SE 11 17 6 9 - - -
01/11:00pm 12.4 9.6 7.1 70 2.6 ESE 11 15 6 8 - - -
01/10:30pm 12.6 10.2 7.1 69 2.7 ESE 9 13 5 7 - - -
01/10:00pm 12.9 10.1 7.1 68 2.8 ESE 11 17 6 9 - - -
01/09:30pm 12.8 10.4 7.0 68 2.8 SE 9 15 5 8 - - -
01/09:00pm 13.0 10.6 7.2 68 2.8 ESE 9 13 5 7 - - -
01/08:30pm 13.3 11.0 7.5 68 2.9 SE 9 13 5 7 - - -
01/08:00pm 13.3 10.3 9.4 77 2.0 S 15 20 8 11 - - -
01/07:30pm 13.3 10.3 9.2 76 2.1 S 15 20 8 11 - - -
01/07:00pm 13.6 10.9 9.1 74 2.3 SSW 13 17 7 9 - - -
01/06:30pm 14.0 11.6 8.6 70 2.7 S 11 15 6 8 - - -
01/06:00pm 14.2 12.5 7.5 64 3.3 SSE 6 13 3 7 - - -
01/05:30pm 14.8 13.1 7.4 61 3.7 SE 6 7 3 4 - - -
01/05:00pm 15.5 13.9 8.0 61 3.8 E 6 9 3 5 - - -
01/04:30pm 16.1 14.5 7.8 58 4.2 E 6 9 3 5 - - -
01/04:00pm 15.7 14.0 7.7 59 4.0 ESE 6 7 3 4 - - -
01/03:30pm 17.1 15.6 8.3 56 4.5 E 6 9 3 5 - - -
01/03:00pm 16.9 15.1 8.1 56 4.5 ESE 7 11 4 6 - - -
01/02:30pm 16.8 15.2 8.2 57 4.4 ESE 6 15 3 8 - - -
01/02:00pm 17.5 16.2 9.2 58 4.4 SE 6 13 3 7 - - -
01/01:30pm 17.2 15.4 9.6 61 4.0 E 9 15 5 8 - - -
01/01:00pm 16.7 15.1 8.7 59 4.2 NE 7 11 4 6 - - -
01/12:30pm 16.5 15.1 9.7 64 3.6 ENE 7 15 4 8 - - -
01/12:00pm 15.6 12.9 9.1 65 3.4 E 13 20 7 11 - - -
01/11:30am 15.3 12.0 9.4 68 3.1 ENE 17 22 9 12 - - -
01/11:00am 14.4 10.7 9.6 73 2.5 E 19 28 10 15 - - -
01/10:30am 13.5 9.8 9.6 77 2.0 E 19 28 10 15 - - -
01/10:00am 12.1 7.6 8.6 79 1.8 ENE 22 32 12 17 - - -
01/09:30am 11.3 7.2 8.5 83 1.4 ENE 20 32 11 17 - - -
01/09:00am 10.9 7.4 8.7 86 1.1 E 17 24 9 13 - - -
01/08:30am 10.3 7.9 8.7 90 0.8 ENE 11 19 6 10 - - -
01/08:00am 9.6 6.7 8.2 91 0.7 E 13 24 7 13 - - -
01/07:30am 9.4 4.8 8.0 91 0.7 E 22 33 12 18 - - -
01/07:00am 9.4 5.0 7.5 88 0.9 E 20 33 11 18 - - -
01/06:30am 9.4 5.0 7.5 88 0.9 ESE 20 32 11 17 - - -
01/06:00am 9.5 5.9 8.3 92 0.6 ESE 17 28 9 15 - - -
01/05:30am 9.7 6.2 8.6 93 0.5 ESE 17 28 9 15 - - -
01/05:00am 9.6 6.8 8.5 93 0.5 ESE 13 24 7 13 - - -

Latest Capital City Observations: Canberra | Sydney | Melbourne | Brisbane | Adelaide | Perth | Hobart | Darwin

Other formats

Comma delimited format used in spreadsheet applications
http://www.bom.gov.au/fwo/IDW60901/IDW60901.94615.axf

JavaScript Object Notation format (JSON) in row-major order
http://www.bom.gov.au/fwo/IDW60901/IDW60901.94615.json

Data quality

Most of these data are generated automatically and are frequently updated. Quality checks on data are not normally performed. It is possible for incorrect values to appear. Refer to information at About Latest Weather Observations and please check the disclaimer before using these data.